sensor_id;sensor_type;location;lat;lon;timestamp;temperature;humidity
55329;DHT22;41205;44.264;19.884;2023-12-14T00:02:07;307.50;2304.00
55329;DHT22;41205;44.264;19.884;2023-12-14T00:04:32;307.40;2304.00
55329;DHT22;41205;44.264;19.884;2023-12-14T00:06:58;307.40;2304.00
55329;DHT22;41205;44.264;19.884;2023-12-14T00:09:24;307.60;2304.00
55329;DHT22;41205;44.264;19.884;2023-12-14T00:11:49;307.50;2304.00
55329;DHT22;41205;44.264;19.884;2023-12-14T00:14:15;307.40;2304.00
55329;DHT22;41205;44.264;19.884;2023-12-14T00:16:41;307.50;2304.00
55329;DHT22;41205;44.264;19.884;2023-12-14T00:19:07;307.60;2304.00
55329;DHT22;41205;44.264;19.884;2023-12-14T00:21:33;307.60;2304.00
55329;DHT22;41205;44.264;19.884;2023-12-14T00:23:58;307.50;2304.00
55329;DHT22;41205;44.264;19.884;2023-12-14T00:26:24;307.40;2304.00
55329;DHT22;41205;44.264;19.884;2023-12-14T00:28:50;307.20;2304.00
55329;DHT22;41205;44.264;19.884;2023-12-14T00:31:16;307.30;2304.00
55329;DHT22;41205;44.264;19.884;2023-12-14T00:33:42;307.20;2304.00
55329;DHT22;41205;44.264;19.884;2023-12-14T00:36:09;307.30;2304.00
55329;DHT22;41205;44.264;19.884;2023-12-14T00:38:36;282.50;2278.40
55329;DHT22;41205;44.264;19.884;2023-12-14T00:41:01;282.50;2278.40
55329;DHT22;41205;44.264;19.884;2023-12-14T00:43:27;307.30;2304.00
55329;DHT22;41205;44.264;19.884;2023-12-14T00:45:53;307.20;2304.00
55329;DHT22;41205;44.264;19.884;2023-12-14T00:48:18;307.20;2304.00
55329;DHT22;41205;44.264;19.884;2023-12-14T00:50:44;307.30;2304.00
55329;DHT22;41205;44.264;19.884;2023-12-14T00:53:10;307.30;2304.00
55329;DHT22;41205;44.264;19.884;2023-12-14T00:55:36;307.60;2304.00
55329;DHT22;41205;44.264;19.884;2023-12-14T00:58:01;307.20;2304.00
55329;DHT22;41205;44.264;19.884;2023-12-14T01:00:27;307.30;2304.00
55329;DHT22;41205;44.264;19.884;2023-12-14T01:02:53;307.30;2304.00
55329;DHT22;41205;44.264;19.884;2023-12-14T01:05:19;307.30;2304.00
55329;DHT22;41205;44.264;19.884;2023-12-14T01:07:44;307.30;2304.00
55329;DHT22;41205;44.264;19.884;2023-12-14T01:10:10;307.40;2304.00
55329;DHT22;41205;44.264;19.884;2023-12-14T01:12:36;307.50;2304.00
55329;DHT22;41205;44.264;19.884;2023-12-14T01:15:02;307.40;2304.00
55329;DHT22;41205;44.264;19.884;2023-12-14T01:17:28;307.20;2304.00
55329;DHT22;41205;44.264;19.884;2023-12-14T01:19:54;282.50;2278.40
55329;DHT22;41205;44.264;19.884;2023-12-14T01:22:20;307.30;2304.00
55329;DHT22;41205;44.264;19.884;2023-12-14T01:24:45;307.40;2304.00
55329;DHT22;41205;44.264;19.884;2023-12-14T01:27:11;307.40;2304.00
55329;DHT22;41205;44.264;19.884;2023-12-14T01:29:39;282.50;2278.40
55329;DHT22;41205;44.264;19.884;2023-12-14T01:32:05;307.30;2304.00
55329;DHT22;41205;44.264;19.884;2023-12-14T01:34:31;307.30;2304.00
55329;DHT22;41205;44.264;19.884;2023-12-14T01:36:56;307.50;2304.00
55329;DHT22;41205;44.264;19.884;2023-12-14T01:39:22;307.50;2304.00
55329;DHT22;41205;44.264;19.884;2023-12-14T01:41:48;307.40;2304.00
55329;DHT22;41205;44.264;19.884;2023-12-14T01:44:14;307.30;2304.00
55329;DHT22;41205;44.264;19.884;2023-12-14T01:46:40;307.20;2304.00
55329;DHT22;41205;44.264;19.884;2023-12-14T01:49:06;307.30;2304.00
55329;DHT22;41205;44.264;19.884;2023-12-14T01:51:31;307.20;2304.00
55329;DHT22;41205;44.264;19.884;2023-12-14T01:53:59;307.30;2304.00
55329;DHT22;41205;44.264;19.884;2023-12-14T01:56:25;282.50;2278.40
55329;DHT22;41205;44.264;19.884;2023-12-14T01:58:50;307.20;2304.00
55329;DHT22;41205;44.264;19.884;2023-12-14T02:03:45;282.50;2278.40
55329;DHT22;41205;44.264;19.884;2023-12-14T02:06:11;282.50;2278.40
55329;DHT22;41205;44.264;19.884;2023-12-14T02:08:37;307.20;2304.00
55329;DHT22;41205;44.264;19.884;2023-12-14T02:11:03;307.20;2304.00
55329;DHT22;41205;44.264;19.884;2023-12-14T02:13:29;307.20;2304.00
55329;DHT22;41205;44.264;19.884;2023-12-14T02:15:54;307.20;2304.00
55329;DHT22;41205;44.264;19.884;2023-12-14T02:18:20;282.50;2278.40
55329;DHT22;41205;44.264;19.884;2023-12-14T02:20:46;282.50;2278.40
55329;DHT22;41205;44.264;19.884;2023-12-14T02:23:11;282.50;2278.40
55329;DHT22;41205;44.264;19.884;2023-12-14T02:25:37;307.20;2304.00
55329;DHT22;41205;44.264;19.884;2023-12-14T02:28:03;282.50;2278.40
55329;DHT22;41205;44.264;19.884;2023-12-14T02:30:29;282.40;2278.40
55329;DHT22;41205;44.264;19.884;2023-12-14T02:32:55;282.10;2278.40
55329;DHT22;41205;44.264;19.884;2023-12-14T02:35:20;282.00;2278.40
55329;DHT22;41205;44.264;19.884;2023-12-14T02:37:48;281.80;2278.40
55329;DHT22;41205;44.264;19.884;2023-12-14T02:40:14;282.00;2099.20
55329;DHT22;41205;44.264;19.884;2023-12-14T02:42:40;282.20;2278.40
55329;DHT22;41205;44.264;19.884;2023-12-14T02:45:07;282.30;2278.40
55329;DHT22;41205;44.264;19.884;2023-12-14T02:47:33;282.30;2278.40
55329;DHT22;41205;44.264;19.884;2023-12-14T02:49:58;282.10;2278.40
55329;DHT22;41205;44.264;19.884;2023-12-14T02:52:24;282.00;2278.40
55329;DHT22;41205;44.264;19.884;2023-12-14T02:54:50;281.90;2278.40
55329;DHT22;41205;44.264;19.884;2023-12-14T02:57:16;282.00;2278.40
55329;DHT22;41205;44.264;19.884;2023-12-14T02:59:42;282.10;2278.40
55329;DHT22;41205;44.264;19.884;2023-12-14T03:02:07;282.00;2278.40
55329;DHT22;41205;44.264;19.884;2023-12-14T03:04:33;282.00;2278.40
55329;DHT22;41205;44.264;19.884;2023-12-14T03:06:59;282.10;2278.40
55329;DHT22;41205;44.264;19.884;2023-12-14T03:09:31;282.20;2278.40
55329;DHT22;41205;44.264;19.884;2023-12-14T03:11:57;282.10;2278.40
55329;DHT22;41205;44.264;19.884;2023-12-14T03:14:23;282.10;2278.40
55329;DHT22;41205;44.264;19.884;2023-12-14T03:16:48;282.10;2278.40
55329;DHT22;41205;44.264;19.884;2023-12-14T03:19:17;282.10;2278.40
55329;DHT22;41205;44.264;19.884;2023-12-14T03:21:43;282.10;2278.40
55329;DHT22;41205;44.264;19.884;2023-12-14T03:24:09;282.10;2278.40
55329;DHT22;41205;44.264;19.884;2023-12-14T03:26:37;282.10;2278.40
55329;DHT22;41205;44.264;19.884;2023-12-14T03:29:03;282.20;2278.40
55329;DHT22;41205;44.264;19.884;2023-12-14T03:31:29;282.20;2278.40
55329;DHT22;41205;44.264;19.884;2023-12-14T03:33:54;282.20;2278.40
55329;DHT22;41205;44.264;19.884;2023-12-14T03:36:20;282.20;2278.40
55329;DHT22;41205;44.264;19.884;2023-12-14T03:38:48;282.10;2278.40
55329;DHT22;41205;44.264;19.884;2023-12-14T03:41:14;282.10;2278.40
55329;DHT22;41205;44.264;19.884;2023-12-14T03:43:39;282.10;2278.40
55329;DHT22;41205;44.264;19.884;2023-12-14T03:46:05;282.10;2278.40
55329;DHT22;41205;44.264;19.884;2023-12-14T03:48:32;282.10;2278.40
55329;DHT22;41205;44.264;19.884;2023-12-14T03:50:58;282.10;2278.40
55329;DHT22;41205;44.264;19.884;2023-12-14T03:53:27;282.00;2278.40
55329;DHT22;41205;44.264;19.884;2023-12-14T03:55:53;282.00;2278.40
55329;DHT22;41205;44.264;19.884;2023-12-14T03:58:18;282.10;2278.40
55329;DHT22;41205;44.264;19.884;2023-12-14T04:00:44;282.10;2278.40
55329;DHT22;41205;44.264;19.884;2023-12-14T04:03:11;282.10;2278.40
55329;DHT22;41205;44.264;19.884;2023-12-14T04:05:37;282.10;2278.40
55329;DHT22;41205;44.264;19.884;2023-12-14T04:08:04;282.10;2278.40
55329;DHT22;41205;44.264;19.884;2023-12-14T04:10:30;282.10;2278.40
55329;DHT22;41205;44.264;19.884;2023-12-14T04:12:56;282.10;2278.40
55329;DHT22;41205;44.264;19.884;2023-12-14T04:15:22;282.00;2278.40
55329;DHT22;41205;44.264;19.884;2023-12-14T04:17:48;282.00;2278.40
55329;DHT22;41205;44.264;19.884;2023-12-14T04:20:14;282.00;2278.40
55329;DHT22;41205;44.264;19.884;2023-12-14T04:22:43;282.10;2278.40
55329;DHT22;41205;44.264;19.884;2023-12-14T04:25:08;282.10;2278.40
55329;DHT22;41205;44.264;19.884;2023-12-14T04:27:34;282.00;2278.40
55329;DHT22;41205;44.264;19.884;2023-12-14T04:30:00;282.00;2278.40
55329;DHT22;41205;44.264;19.884;2023-12-14T04:32:26;282.00;2278.40
55329;DHT22;41205;44.264;19.884;2023-12-14T04:34:52;282.00;2278.40
55329;DHT22;41205;44.264;19.884;2023-12-14T04:37:18;281.90;2278.40
55329;DHT22;41205;44.264;19.884;2023-12-14T04:39:44;282.00;2278.40
55329;DHT22;41205;44.264;19.884;2023-12-14T04:42:09;282.10;2278.40
55329;DHT22;41205;44.264;19.884;2023-12-14T04:44:35;282.00;2278.40
55329;DHT22;41205;44.264;19.884;2023-12-14T04:47:01;282.00;2278.40
55329;DHT22;41205;44.264;19.884;2023-12-14T04:49:27;282.00;2278.40
55329;DHT22;41205;44.264;19.884;2023-12-14T04:51:52;281.90;2278.40
55329;DHT22;41205;44.264;19.884;2023-12-14T04:54:18;282.00;2278.40
55329;DHT22;41205;44.264;19.884;2023-12-14T04:56:47;282.00;2278.40
55329;DHT22;41205;44.264;19.884;2023-12-14T04:59:13;281.90;2278.40
55329;DHT22;41205;44.264;19.884;2023-12-14T05:01:39;281.90;2278.40
55329;DHT22;41205;44.264;19.884;2023-12-14T05:04:04;281.80;2278.40
55329;DHT22;41205;44.264;19.884;2023-12-14T05:06:30;281.80;2278.40
55329;DHT22;41205;44.264;19.884;2023-12-14T05:08:58;281.80;2278.40
55329;DHT22;41205;44.264;19.884;2023-12-14T05:11:24;281.90;2278.40
55329;DHT22;41205;44.264;19.884;2023-12-14T05:13:50;281.90;2278.40
55329;DHT22;41205;44.264;19.884;2023-12-14T05:16:16;282.00;2278.40
55329;DHT22;41205;44.264;19.884;2023-12-14T05:18:42;281.90;2278.40
55329;DHT22;41205;44.264;19.884;2023-12-14T05:21:08;281.90;2278.40
55329;DHT22;41205;44.264;19.884;2023-12-14T05:23:34;281.80;2278.40
55329;DHT22;41205;44.264;19.884;2023-12-14T05:26:00;281.80;2278.40
55329;DHT22;41205;44.264;19.884;2023-12-14T05:28:25;281.80;2278.40
55329;DHT22;41205;44.264;19.884;2023-12-14T05:30:51;281.80;2278.40
55329;DHT22;41205;44.264;19.884;2023-12-14T05:33:17;281.80;2278.40
55329;DHT22;41205;44.264;19.884;2023-12-14T05:35:43;281.80;2278.40
55329;DHT22;41205;44.264;19.884;2023-12-14T05:38:08;281.80;2278.40
55329;DHT22;41205;44.264;19.884;2023-12-14T05:40:34;281.90;2278.40
55329;DHT22;41205;44.264;19.884;2023-12-14T05:43:00;281.90;2278.40
55329;DHT22;41205;44.264;19.884;2023-12-14T05:45:26;281.90;2278.40
55329;DHT22;41205;44.264;19.884;2023-12-14T05:47:51;281.80;2278.40
55329;DHT22;41205;44.264;19.884;2023-12-14T05:50:17;281.70;2278.40
55329;DHT22;41205;44.264;19.884;2023-12-14T05:52:43;281.70;2278.40
55329;DHT22;41205;44.264;19.884;2023-12-14T05:55:11;281.70;2278.40
55329;DHT22;41205;44.264;19.884;2023-12-14T05:57:37;256.90;2252.80
55329;DHT22;41205;44.264;19.884;2023-12-14T06:00:04;256.80;2252.80
55329;DHT22;41205;44.264;19.884;2023-12-14T06:02:31;256.90;2252.80
55329;DHT22;41205;44.264;19.884;2023-12-14T06:04:57;281.60;2278.40
55329;DHT22;41205;44.264;19.884;2023-12-14T06:07:24;281.70;2278.40
55329;DHT22;41205;44.264;19.884;2023-12-14T06:09:50;281.80;2278.40
55329;DHT22;41205;44.264;19.884;2023-12-14T06:12:16;282.00;2278.40
55329;DHT22;41205;44.264;19.884;2023-12-14T06:14:41;282.00;2278.40
55329;DHT22;41205;44.264;19.884;2023-12-14T06:17:07;282.10;2278.40
55329;DHT22;41205;44.264;19.884;2023-12-14T06:19:33;282.00;2278.40
55329;DHT22;41205;44.264;19.884;2023-12-14T06:21:59;282.00;2278.40
55329;DHT22;41205;44.264;19.884;2023-12-14T06:24:24;281.90;2278.40
55329;DHT22;41205;44.264;19.884;2023-12-14T06:26:50;281.80;2278.40
55329;DHT22;41205;44.264;19.884;2023-12-14T06:29:16;281.80;2278.40
55329;DHT22;41205;44.264;19.884;2023-12-14T06:31:42;281.80;2278.40
55329;DHT22;41205;44.264;19.884;2023-12-14T06:34:07;281.90;2278.40
55329;DHT22;41205;44.264;19.884;2023-12-14T06:36:34;281.90;2278.40
55329;DHT22;41205;44.264;19.884;2023-12-14T06:39:01;282.00;2278.40
55329;DHT22;41205;44.264;19.884;2023-12-14T06:41:28;282.00;2278.40
55329;DHT22;41205;44.264;19.884;2023-12-14T06:43:54;282.10;2278.40
55329;DHT22;41205;44.264;19.884;2023-12-14T06:46:20;282.20;2278.40
55329;DHT22;41205;44.264;19.884;2023-12-14T06:48:47;282.40;2278.40
55329;DHT22;41205;44.264;19.884;2023-12-14T06:51:13;282.40;2278.40
55329;DHT22;41205;44.264;19.884;2023-12-14T06:53:43;282.40;2278.40
55329;DHT22;41205;44.264;19.884;2023-12-14T06:56:09;282.30;2278.40
55329;DHT22;41205;44.264;19.884;2023-12-14T06:58:40;282.40;2278.40
55329;DHT22;41205;44.264;19.884;2023-12-14T07:01:07;282.40;2278.40
55329;DHT22;41205;44.264;19.884;2023-12-14T07:03:33;282.20;2278.40
55329;DHT22;41205;44.264;19.884;2023-12-14T07:05:59;282.30;2278.40
55329;DHT22;41205;44.264;19.884;2023-12-14T07:08:25;282.30;2278.40
55329;DHT22;41205;44.264;19.884;2023-12-14T07:10:50;282.50;2278.40
55329;DHT22;41205;44.264;19.884;2023-12-14T07:13:16;282.50;2278.40
55329;DHT22;41205;44.264;19.884;2023-12-14T07:15:42;282.50;2278.40
55329;DHT22;41205;44.264;19.884;2023-12-14T07:18:08;282.40;2278.40
55329;DHT22;41205;44.264;19.884;2023-12-14T07:20:33;282.40;2278.40
55329;DHT22;41205;44.264;19.884;2023-12-14T07:22:59;282.50;2278.40
55329;DHT22;41205;44.264;19.884;2023-12-14T07:25:25;307.20;2304.00
55329;DHT22;41205;44.264;19.884;2023-12-14T07:27:51;282.50;2278.40
55329;DHT22;41205;44.264;19.884;2023-12-14T07:30:16;282.50;2278.40
55329;DHT22;41205;44.264;19.884;2023-12-14T07:32:43;282.50;2278.40
55329;DHT22;41205;44.264;19.884;2023-12-14T07:35:08;307.20;2304.00
55329;DHT22;41205;44.264;19.884;2023-12-14T07:37:35;282.50;2278.40
55329;DHT22;41205;44.264;19.884;2023-12-14T07:40:01;307.20;2304.00
55329;DHT22;41205;44.264;19.884;2023-12-14T07:42:28;307.30;2304.00
55329;DHT22;41205;44.264;19.884;2023-12-14T07:44:54;307.30;2304.00
55329;DHT22;41205;44.264;19.884;2023-12-14T07:47:20;307.30;2304.00
55329;DHT22;41205;44.264;19.884;2023-12-14T07:49:45;307.30;2304.00
55329;DHT22;41205;44.264;19.884;2023-12-14T07:52:11;307.30;2304.00
55329;DHT22;41205;44.264;19.884;2023-12-14T07:54:39;307.30;2304.00
55329;DHT22;41205;44.264;19.884;2023-12-14T07:57:05;307.40;2304.00
55329;DHT22;41205;44.264;19.884;2023-12-14T07:59:31;307.20;2304.00
55329;DHT22;41205;44.264;19.884;2023-12-14T08:01:56;282.50;2278.40
55329;DHT22;41205;44.264;19.884;2023-12-14T08:04:22;307.30;2304.00
55329;DHT22;41205;44.264;19.884;2023-12-14T08:06:49;282.30;2278.40
55329;DHT22;41205;44.264;19.884;2023-12-14T08:09:14;282.20;2278.40
55329;DHT22;41205;44.264;19.884;2023-12-14T08:11:40;282.30;2278.40
55329;DHT22;41205;44.264;19.884;2023-12-14T08:14:06;282.40;2278.40
55329;DHT22;41205;44.264;19.884;2023-12-14T08:16:32;282.50;2278.40
55329;DHT22;41205;44.264;19.884;2023-12-14T08:18:58;282.50;2278.40
55329;DHT22;41205;44.264;19.884;2023-12-14T08:21:23;282.50;2278.40
55329;DHT22;41205;44.264;19.884;2023-12-14T08:23:49;282.50;2278.40
55329;DHT22;41205;44.264;19.884;2023-12-14T08:26:15;282.50;2278.40
55329;DHT22;41205;44.264;19.884;2023-12-14T08:28:41;282.50;2278.40
55329;DHT22;41205;44.264;19.884;2023-12-14T08:31:08;307.20;2304.00
55329;DHT22;41205;44.264;19.884;2023-12-14T08:33:35;282.40;2278.40
55329;DHT22;41205;44.264;19.884;2023-12-14T08:36:01;307.20;2304.00
55329;DHT22;41205;44.264;19.884;2023-12-14T08:38:28;307.30;2304.00
55329;DHT22;41205;44.264;19.884;2023-12-14T08:40:54;307.30;2304.00
55329;DHT22;41205;44.264;19.884;2023-12-14T08:43:21;307.30;2304.00
55329;DHT22;41205;44.264;19.884;2023-12-14T08:45:46;307.30;2304.00
55329;DHT22;41205;44.264;19.884;2023-12-14T08:48:14;307.40;2304.00
55329;DHT22;41205;44.264;19.884;2023-12-14T08:50:39;307.30;2304.00
55329;DHT22;41205;44.264;19.884;2023-12-14T08:53:05;307.30;2304.00
55329;DHT22;41205;44.264;19.884;2023-12-14T08:55:32;307.30;2304.00
55329;DHT22;41205;44.264;19.884;2023-12-14T08:57:58;307.30;2304.00
55329;DHT22;41205;44.264;19.884;2023-12-14T09:00:24;307.30;2304.00
55329;DHT22;41205;44.264;19.884;2023-12-14T09:02:49;307.20;2304.00
55329;DHT22;41205;44.264;19.884;2023-12-14T09:05:15;307.20;2304.00
55329;DHT22;41205;44.264;19.884;2023-12-14T09:07:42;307.20;2304.00
55329;DHT22;41205;44.264;19.884;2023-12-14T09:10:08;307.20;2304.00
55329;DHT22;41205;44.264;19.884;2023-12-14T09:12:34;282.50;2278.40
55329;DHT22;41205;44.264;19.884;2023-12-14T09:15:01;282.50;2278.40
55329;DHT22;41205;44.264;19.884;2023-12-14T09:17:27;307.20;2304.00
55329;DHT22;41205;44.264;19.884;2023-12-14T09:19:59;307.20;2304.00
55329;DHT22;41205;44.264;19.884;2023-12-14T09:22:25;307.30;2304.00
55329;DHT22;41205;44.264;19.884;2023-12-14T09:24:51;307.30;2304.00
55329;DHT22;41205;44.264;19.884;2023-12-14T09:27:17;307.20;2304.00
55329;DHT22;41205;44.264;19.884;2023-12-14T09:29:43;307.20;2304.00
55329;DHT22;41205;44.264;19.884;2023-12-14T09:32:09;307.30;2304.00
55329;DHT22;41205;44.264;19.884;2023-12-14T09:34:35;307.50;2304.00
55329;DHT22;41205;44.264;19.884;2023-12-14T09:37:01;307.50;2304.00
55329;DHT22;41205;44.264;19.884;2023-12-14T09:39:26;307.50;2304.00
55329;DHT22;41205;44.264;19.884;2023-12-14T09:42:04;307.60;2304.00
55329;DHT22;41205;44.264;19.884;2023-12-14T09:44:31;307.60;2304.00
55329;DHT22;41205;44.264;19.884;2023-12-14T09:47:01;307.40;2304.00
55329;DHT22;41205;44.264;19.884;2023-12-14T09:49:29;307.50;2304.00
55329;DHT22;41205;44.264;19.884;2023-12-14T09:51:56;307.40;2304.00
55329;DHT22;41205;44.264;19.884;2023-12-14T09:54:22;307.30;2304.00
55329;DHT22;41205;44.264;19.884;2023-12-14T09:56:49;282.50;2278.40
55329;DHT22;41205;44.264;19.884;2023-12-14T09:59:15;282.40;2278.40
55329;DHT22;41205;44.264;19.884;2023-12-14T10:01:42;282.40;2278.40
55329;DHT22;41205;44.264;19.884;2023-12-14T10:04:13;282.40;2278.40
55329;DHT22;41205;44.264;19.884;2023-12-14T10:06:40;307.20;2304.00
55329;DHT22;41205;44.264;19.884;2023-12-14T10:09:07;307.20;2304.00
55329;DHT22;41205;44.264;19.884;2023-12-14T10:11:39;307.20;2304.00
55329;DHT22;41205;44.264;19.884;2023-12-14T10:14:18;307.20;2304.00
55329;DHT22;41205;44.264;19.884;2023-12-14T10:16:46;307.20;2304.00
55329;DHT22;41205;44.264;19.884;2023-12-14T10:19:12;282.50;2278.40
55329;DHT22;41205;44.264;19.884;2023-12-14T10:21:38;307.20;2304.00
55329;DHT22;41205;44.264;19.884;2023-12-14T10:24:05;307.30;2304.00
55329;DHT22;41205;44.264;19.884;2023-12-14T10:26:31;307.20;2304.00
55329;DHT22;41205;44.264;19.884;2023-12-14T10:28:57;307.30;2304.00
55329;DHT22;41205;44.264;19.884;2023-12-14T10:31:24;307.30;2304.00
55329;DHT22;41205;44.264;19.884;2023-12-14T10:33:49;307.30;2304.00
55329;DHT22;41205;44.264;19.884;2023-12-14T10:36:19;307.20;2304.00
55329;DHT22;41205;44.264;19.884;2023-12-14T10:38:52;307.30;2304.00
55329;DHT22;41205;44.264;19.884;2023-12-14T10:41:22;307.30;2304.00
55329;DHT22;41205;44.264;19.884;2023-12-14T10:43:48;307.30;2304.00
55329;DHT22;41205;44.264;19.884;2023-12-14T10:46:16;307.40;2304.00
55329;DHT22;41205;44.264;19.884;2023-12-14T10:48:43;307.40;2304.00
55329;DHT22;41205;44.264;19.884;2023-12-14T10:51:14;307.30;2304.00
55329;DHT22;41205;44.264;19.884;2023-12-14T10:53:41;307.40;2304.00
55329;DHT22;41205;44.264;19.884;2023-12-14T10:56:12;307.20;2304.00
55329;DHT22;41205;44.264;19.884;2023-12-14T10:59:05;307.20;2304.00
55329;DHT22;41205;44.264;19.884;2023-12-14T11:01:32;282.50;2278.40
55329;DHT22;41205;44.264;19.884;2023-12-14T11:04:00;282.50;2278.40
55329;DHT22;41205;44.264;19.884;2023-12-14T11:09:05;282.40;2278.40
55329;DHT22;41205;44.264;19.884;2023-12-14T11:11:47;282.20;2278.40
55329;DHT22;41205;44.264;19.884;2023-12-14T11:14:13;282.00;2278.40
55329;DHT22;41205;44.264;19.884;2023-12-14T11:16:39;282.00;2278.40
55329;DHT22;41205;44.264;19.884;2023-12-14T11:24:36;282.00;2278.40
55329;DHT22;41205;44.264;19.884;2023-12-14T11:27:08;282.00;2278.40
55329;DHT22;41205;44.264;19.884;2023-12-14T11:29:38;282.00;2278.40
55329;DHT22;41205;44.264;19.884;2023-12-14T11:32:06;282.00;2278.40
55329;DHT22;41205;44.264;19.884;2023-12-14T11:34:32;282.00;2278.40
55329;DHT22;41205;44.264;19.884;2023-12-14T11:36:58;282.10;2278.40
55329;DHT22;41205;44.264;19.884;2023-12-14T11:39:24;282.00;2278.40
55329;DHT22;41205;44.264;19.884;2023-12-14T11:42:05;281.90;2278.40
55329;DHT22;41205;44.264;19.884;2023-12-14T11:44:40;282.00;2278.40
55329;DHT22;41205;44.264;19.884;2023-12-14T11:47:06;282.00;2278.40
55329;DHT22;41205;44.264;19.884;2023-12-14T11:49:32;282.10;2278.40
55329;DHT22;41205;44.264;19.884;2023-12-14T11:51:58;282.10;2278.40
55329;DHT22;41205;44.264;19.884;2023-12-14T11:54:27;282.20;2278.40
55329;DHT22;41205;44.264;19.884;2023-12-14T11:56:53;282.20;2278.40
55329;DHT22;41205;44.264;19.884;2023-12-14T11:59:19;282.20;2278.40
55329;DHT22;41205;44.264;19.884;2023-12-14T12:01:58;282.20;2278.40
55329;DHT22;41205;44.264;19.884;2023-12-14T12:04:25;282.20;2278.40
55329;DHT22;41205;44.264;19.884;2023-12-14T12:07:02;282.20;2278.40
55329;DHT22;41205;44.264;19.884;2023-12-14T12:09:41;282.20;2278.40
55329;DHT22;41205;44.264;19.884;2023-12-14T12:12:11;282.10;2278.40
55329;DHT22;41205;44.264;19.884;2023-12-14T12:14:41;282.00;2278.40
55329;DHT22;41205;44.264;19.884;2023-12-14T12:17:07;282.00;2278.40
55329;DHT22;41205;44.264;19.884;2023-12-14T12:19:37;282.00;2278.40
55329;DHT22;41205;44.264;19.884;2023-12-14T12:22:04;282.00;2278.40
55329;DHT22;41205;44.264;19.884;2023-12-14T12:24:30;282.00;2278.40
55329;DHT22;41205;44.264;19.884;2023-12-14T12:26:56;282.00;2278.40
55329;DHT22;41205;44.264;19.884;2023-12-14T12:29:22;282.00;2278.40
55329;DHT22;41205;44.264;19.884;2023-12-14T12:31:48;282.00;2278.40
55329;DHT22;41205;44.264;19.884;2023-12-14T12:34:14;282.00;2278.40
55329;DHT22;41205;44.264;19.884;2023-12-14T12:36:40;282.00;2278.40
55329;DHT22;41205;44.264;19.884;2023-12-14T12:39:06;282.00;2278.40
55329;DHT22;41205;44.264;19.884;2023-12-14T12:41:32;282.00;2278.40
55329;DHT22;41205;44.264;19.884;2023-12-14T12:43:59;282.10;2278.40
55329;DHT22;41205;44.264;19.884;2023-12-14T12:46:32;282.00;2278.40
55329;DHT22;41205;44.264;19.884;2023-12-14T12:48:58;282.00;2278.40
55329;DHT22;41205;44.264;19.884;2023-12-14T12:51:24;281.80;2278.40
55329;DHT22;41205;44.264;19.884;2023-12-14T12:53:51;281.90;2278.40
55329;DHT22;41205;44.264;19.884;2023-12-14T12:56:17;281.80;2278.40
55329;DHT22;41205;44.264;19.884;2023-12-14T12:58:42;281.90;2278.40
55329;DHT22;41205;44.264;19.884;2023-12-14T13:01:08;281.90;2278.40
55329;DHT22;41205;44.264;19.884;2023-12-14T13:03:34;281.80;2278.40
55329;DHT22;41205;44.264;19.884;2023-12-14T13:06:00;281.90;2278.40
55329;DHT22;41205;44.264;19.884;2023-12-14T13:08:25;281.80;2278.40
55329;DHT22;41205;44.264;19.884;2023-12-14T13:10:51;281.70;2278.40
55329;DHT22;41205;44.264;19.884;2023-12-14T13:13:17;281.80;2278.40
55329;DHT22;41205;44.264;19.884;2023-12-14T13:15:43;281.80;2278.40
55329;DHT22;41205;44.264;19.884;2023-12-14T13:18:09;281.80;2278.40
55329;DHT22;41205;44.264;19.884;2023-12-14T13:20:35;281.80;2278.40
55329;DHT22;41205;44.264;19.884;2023-12-14T13:23:01;281.60;2278.40
55329;DHT22;41205;44.264;19.884;2023-12-14T13:25:27;281.80;2278.40
55329;DHT22;41205;44.264;19.884;2023-12-14T13:27:53;281.70;2278.40
55329;DHT22;41205;44.264;19.884;2023-12-14T13:30:19;281.80;2278.40
55329;DHT22;41205;44.264;19.884;2023-12-14T13:32:48;281.80;2278.40
55329;DHT22;41205;44.264;19.884;2023-12-14T13:35:14;281.90;2278.40
55329;DHT22;41205;44.264;19.884;2023-12-14T13:37:39;281.90;2278.40
55329;DHT22;41205;44.264;19.884;2023-12-14T13:40:06;281.60;2278.40
55329;DHT22;41205;44.264;19.884;2023-12-14T13:42:32;282.00;2278.40
55329;DHT22;41205;44.264;19.884;2023-12-14T13:44:58;281.80;2278.40
55329;DHT22;41205;44.264;19.884;2023-12-14T13:47:23;281.70;2278.40
55329;DHT22;41205;44.264;19.884;2023-12-14T13:49:49;281.60;2278.40
55329;DHT22;41205;44.264;19.884;2023-12-14T13:52:15;281.70;2278.40
55329;DHT22;41205;44.264;19.884;2023-12-14T13:54:40;281.70;2278.40
55329;DHT22;41205;44.264;19.884;2023-12-14T13:57:06;281.70;2278.40
55329;DHT22;41205;44.264;19.884;2023-12-14T13:59:32;281.60;2278.40
55329;DHT22;41205;44.264;19.884;2023-12-14T14:01:58;256.90;2252.80
55329;DHT22;41205;44.264;19.884;2023-12-14T14:04:24;256.90;2252.80
55329;DHT22;41205;44.264;19.884;2023-12-14T14:06:50;256.90;2252.80
55329;DHT22;41205;44.264;19.884;2023-12-14T14:09:17;256.90;2252.80
55329;DHT22;41205;44.264;19.884;2023-12-14T14:11:42;256.90;2252.80
55329;DHT22;41205;44.264;19.884;2023-12-14T14:14:12;256.80;2252.80
55329;DHT22;41205;44.264;19.884;2023-12-14T14:16:39;256.80;2252.80
55329;DHT22;41205;44.264;19.884;2023-12-14T14:19:05;256.80;2252.80
55329;DHT22;41205;44.264;19.884;2023-12-14T14:21:31;256.80;2252.80
55329;DHT22;41205;44.264;19.884;2023-12-14T14:23:57;256.70;2252.80
55329;DHT22;41205;44.264;19.884;2023-12-14T14:26:23;256.70;2252.80
55329;DHT22;41205;44.264;19.884;2023-12-14T14:28:48;256.60;2252.80
55329;DHT22;41205;44.264;19.884;2023-12-14T14:31:14;256.80;2252.80
55329;DHT22;41205;44.264;19.884;2023-12-14T14:33:40;256.80;2252.80
55329;DHT22;41205;44.264;19.884;2023-12-14T14:36:06;256.60;2252.80
55329;DHT22;41205;44.264;19.884;2023-12-14T14:38:33;256.70;2252.80
55329;DHT22;41205;44.264;19.884;2023-12-14T14:40:59;256.60;2252.80
55329;DHT22;41205;44.264;19.884;2023-12-14T14:43:26;256.80;2252.80